Keewaydin — ZCFL7 — position and weather

sailwx.info

Track history (hours):
 
Tides and Currents Weather Stations Pressure Air Temp Water Temp Dewpoint Dewpoint Depression Visibility Wind Speed Wind Dir Waves Ship Positions

Keewaydin

Last reported at 2017-Jun-13 19:28 UTC. Time now 2017-Jun-28 17:37 UTC.
Position N 40°05' E 003°57'.
Warning: this ship's position is 14 days out of date.

Length 34 m; draft 2.7 m.

MMSI: 319536000.

Date/timePositionNaut miles runAvg speedWind from/ knotsBaromVisibWave heightAir tempDewpointWater temp
2017-Jun-13 19:28N 40°05' E 003°57'4 9.6
2017-Jun-13 19:00N 40°04' E 003°51'5 9.7
2017-Jun-13 18:28N 40°03' E 003°44'5 9.6
2017-Jun-13 17:59N 40°01' E 003°39'5 9.3
2017-Jun-13 17:30N 39°60' E 003°33'5 9.4
2017-Jun-13 17:00N 39°58' E 003°27'16 7.4
2017-Jun-13 14:52N 39°54' E 003°07'3 0.2
2017-Jun-12 18:02N 39°56' E 003°11'14 6.2
2017-Jun-12 15:46N 39°54' E 002°52'2 8.6
2017-Jun-12 15:30N 39°53' E 002°50'4 8.8
2017-Jun-12 15:00N 39°51' E 002°45'4 8.0
2017-Jun-12 14:30N 39°48' E 002°41'0 0.2
2017-Jun-12 13:20N 39°48' E 002°41'0 0.0
2017-Jun-12 12:59N 39°48' E 002°41'0 0.0
2017-Jun-12 12:23N 39°48' E 002°41'0 0.0
2017-Jun-12 11:56N 39°48' E 002°41'0 0.0
2017-Jun-12 11:14N 39°48' E 002°41'0 0.0
2017-Jun-12 10:53N 39°48' E 002°41'0 0.0
2017-Jun-12 10:26N 39°48' E 002°41'0 0.0
2017-Jun-12 09:59N 39°48' E 002°41'0 0.0
2017-Jun-12 09:29N 39°48' E 002°41'0 0.0
2017-Jun-12 08:59N 39°48' E 002°41'0 0.0
2017-Jun-12 08:26N 39°48' E 002°41'0 0.0
2017-Jun-12 07:53N 39°48' E 002°41'0 0.0
2017-Jun-12 07:08N 39°48' E 002°41'0 0.0
2017-Jun-12 06:59N 39°48' E 002°41'0 0.0
2017-Jun-12 06:23N 39°48' E 002°41'0 0.0
2017-Jun-12 05:59N 39°48' E 002°41'0 0.0
2017-Jun-12 05:30N 39°48' E 002°41'0 0.0
2017-Jun-12 05:00N 39°48' E 002°41'0 0.0
2017-Jun-12 04:30N 39°48' E 002°41'0 0.0
2017-Jun-12 04:00N 39°48' E 002°41'0 0.0
2017-Jun-12 03:30N 39°48' E 002°41'0 0.0
2017-Jun-12 03:00N 39°48' E 002°41'0 0.0
2017-Jun-12 02:31N 39°48' E 002°41'0 0.0
2017-Jun-12 02:00N 39°48' E 002°41'0 0.0
2017-Jun-12 01:30N 39°48' E 002°41'0 0.0
2017-Jun-12 01:00N 39°48' E 002°41'0 0.0
2017-Jun-12 00:30N 39°48' E 002°41'0 0.0
2017-Jun-12 00:00N 39°48' E 002°41'0 0.0
2017-Jun-11 23:30N 39°48' E 002°41'0 0.0
2017-Jun-11 23:00N 39°48' E 002°41'0 0.0
2017-Jun-11 22:30N 39°48' E 002°41'0 0.0
2017-Jun-11 22:00N 39°48' E 002°41'0 0.0
2017-Jun-11 21:30N 39°48' E 002°41'0 0.1
2017-Jun-11 21:00N 39°48' E 002°41'0 0.0
2017-Jun-11 20:30N 39°48' E 002°41'0 0.0
2017-Jun-11 20:00N 39°48' E 002°41'0 0.0
2017-Jun-11 19:30N 39°48' E 002°41'0 0.0
2017-Jun-11 19:00N 39°48' E 002°41'1 1.4
2017-Jun-11 18:30N 39°48' E 002°41'5 9.2
2017-Jun-11 18:00N 39°53' E 002°39'5 9.4
2017-Jun-11 17:30N 39°57' E 002°38'5 9.1
2017-Jun-11 17:01N 40°02' E 002°36'4 8.8
2017-Jun-11 16:30N 40°06' E 002°35'4 9.0
2017-Jun-11 16:00N 40°10' E 002°34'4 8.9
2017-Jun-11 15:30N 40°15' E 002°33'4 9.0
2017-Jun-11 15:00N 40°19' E 002°32'5 8.9
2017-Jun-11 14:30N 40°24' E 002°31'9 8.9
2017-Jun-11 13:30N 40°32' E 002°30'4 8.6
2017-Jun-11 13:00N 40°37' E 002°29'4 8.7
2017-Jun-11 12:30N 40°41' E 002°27'4 8.9
2017-Jun-11 12:00N 40°45' E 002°26'5 9.0
2017-Jun-11 11:30N 40°50' E 002°25'5 9.1
2017-Jun-11 11:00N 40°54' E 002°24'5 9.2
2017-Jun-11 10:30N 40°58' E 002°22'5 9.1
2017-Jun-11 10:00N 41°03' E 002°21'5 9.1
2017-Jun-11 09:30N 41°07' E 002°20'4 9.1
2017-Jun-11 09:00N 41°12' E 002°18'5 9.1
2017-Jun-11 08:30N 41°16' E 002°17'4 8.8
2017-Jun-11 08:00N 41°21' E 002°16'5 8.8
2017-Jun-11 07:29N 41°25' E 002°15'1 2.1
2017-Jun-11 06:58N 41°26' E 002°15'0 0.0
2017-Jun-11 06:28N 41°26' E 002°15'0 0.0
2017-Jun-09 13:47N 41°26' E 002°15'0 0.1
2017-Jun-09 13:30N 41°26' E 002°15'1 2.9
2017-Jun-09 13:00N 41°25' E 002°14'1 1.8
2017-Jun-09 12:29N 41°25' E 002°16'1 2.5
2017-Jun-09 12:00N 41°26' E 002°17'1 2.9
2017-Jun-09 11:30N 41°26' E 002°15'1 1.7
2017-Jun-09 11:00N 41°27' E 002°16'2 3.2
2017-Jun-09 10:28N 41°27' E 002°18'1 1.6
2017-Jun-09 09:59N 41°27' E 002°18'2 4.0
2017-Jun-09 09:29N 41°25' E 002°16'  
Track history (hours):
 
Tides and Currents Weather Stations Pressure Air Temp Water Temp Dewpoint Dewpoint Depression Visibility Wind Speed Wind Dir Waves Ship Positions

Keewaydin

Last reported at 2017-Jun-13 19:28 UTC. Time now 2017-Jun-28 17:37 UTC.
Position N 40°05' E 003°57'.
Warning: this ship's position is 14 days out of date.

Length 34 m; draft 2.7 m.

MMSI: 319536000.

Date/timePositionNaut miles runAvg speedWind from/ knotsBaromVisibWave heightAir tempDewpointWater temp
2017-Jun-13 19:28N 40°05' E 003°57'4 9.6
2017-Jun-13 19:00N 40°04' E 003°51'5 9.7
2017-Jun-13 18:28N 40°03' E 003°44'5 9.6
2017-Jun-13 17:59N 40°01' E 003°39'5 9.3
2017-Jun-13 17:30N 39°60' E 003°33'5 9.4
2017-Jun-13 17:00N 39°58' E 003°27'16 7.4
2017-Jun-13 14:52N 39°54' E 003°07'3 0.2
2017-Jun-12 18:02N 39°56' E 003°11'14 6.2
2017-Jun-12 15:46N 39°54' E 002°52'2 8.6
2017-Jun-12 15:30N 39°53' E 002°50'4 8.8
2017-Jun-12 15:00N 39°51' E 002°45'4 8.0
2017-Jun-12 14:30N 39°48' E 002°41'0 0.2
2017-Jun-12 13:20N 39°48' E 002°41'0 0.0
2017-Jun-12 12:59N 39°48' E 002°41'0 0.0
2017-Jun-12 12:23N 39°48' E 002°41'0 0.0
2017-Jun-12 11:56N 39°48' E 002°41'0 0.0
2017-Jun-12 11:14N 39°48' E 002°41'0 0.0
2017-Jun-12 10:53N 39°48' E 002°41'0 0.0
2017-Jun-12 10:26N 39°48' E 002°41'0 0.0
2017-Jun-12 09:59N 39°48' E 002°41'0 0.0
2017-Jun-12 09:29N 39°48' E 002°41'0 0.0
2017-Jun-12 08:59N 39°48' E 002°41'0 0.0
2017-Jun-12 08:26N 39°48' E 002°41'0 0.0
2017-Jun-12 07:53N 39°48' E 002°41'0 0.0
2017-Jun-12 07:08N 39°48' E 002°41'0 0.0
2017-Jun-12 06:59N 39°48' E 002°41'0 0.0
2017-Jun-12 06:23N 39°48' E 002°41'0 0.0
2017-Jun-12 05:59N 39°48' E 002°41'0 0.0
2017-Jun-12 05:30N 39°48' E 002°41'0 0.0
2017-Jun-12 05:00N 39°48' E 002°41'0 0.0
2017-Jun-12 04:30N 39°48' E 002°41'0 0.0
2017-Jun-12 04:00N 39°48' E 002°41'0 0.0
2017-Jun-12 03:30N 39°48' E 002°41'0 0.0
2017-Jun-12 03:00N 39°48' E 002°41'0 0.0
2017-Jun-12 02:31N 39°48' E 002°41'0 0.0
2017-Jun-12 02:00N 39°48' E 002°41'0 0.0
2017-Jun-12 01:30N 39°48' E 002°41'0 0.0
2017-Jun-12 01:00N 39°48' E 002°41'0 0.0
2017-Jun-12 00:30N 39°48' E 002°41'0 0.0
2017-Jun-12 00:00N 39°48' E 002°41'0 0.0
2017-Jun-11 23:30N 39°48' E 002°41'0 0.0
2017-Jun-11 23:00N 39°48' E 002°41'0 0.0
2017-Jun-11 22:30N 39°48' E 002°41'0 0.0
2017-Jun-11 22:00N 39°48' E 002°41'0 0.0
2017-Jun-11 21:30N 39°48' E 002°41'0 0.1
2017-Jun-11 21:00N 39°48' E 002°41'0 0.0
2017-Jun-11 20:30N 39°48' E 002°41'0 0.0
2017-Jun-11 20:00N 39°48' E 002°41'0 0.0
2017-Jun-11 19:30N 39°48' E 002°41'0 0.0
2017-Jun-11 19:00N 39°48' E 002°41'1 1.4
2017-Jun-11 18:30N 39°48' E 002°41'5 9.2
2017-Jun-11 18:00N 39°53' E 002°39'5 9.4
2017-Jun-11 17:30N 39°57' E 002°38'5 9.1
2017-Jun-11 17:01N 40°02' E 002°36'4 8.8
2017-Jun-11 16:30N 40°06' E 002°35'4 9.0
2017-Jun-11 16:00N 40°10' E 002°34'4 8.9
2017-Jun-11 15:30N 40°15' E 002°33'4 9.0
2017-Jun-11 15:00N 40°19' E 002°32'5 8.9
2017-Jun-11 14:30N 40°24' E 002°31'9 8.9
2017-Jun-11 13:30N 40°32' E 002°30'4 8.6
2017-Jun-11 13:00N 40°37' E 002°29'4 8.7
2017-Jun-11 12:30N 40°41' E 002°27'4 8.9
2017-Jun-11 12:00N 40°45' E 002°26'5 9.0
2017-Jun-11 11:30N 40°50' E 002°25'5 9.1
2017-Jun-11 11:00N 40°54' E 002°24'5 9.2
2017-Jun-11 10:30N 40°58' E 002°22'5 9.1
2017-Jun-11 10:00N 41°03' E 002°21'5 9.1
2017-Jun-11 09:30N 41°07' E 002°20'4 9.1
2017-Jun-11 09:00N 41°12' E 002°18'5 9.1
2017-Jun-11 08:30N 41°16' E 002°17'4 8.8
2017-Jun-11 08:00N 41°21' E 002°16'5 8.8
2017-Jun-11 07:29N 41°25' E 002°15'1 2.1
2017-Jun-11 06:58N 41°26' E 002°15'0 0.0
2017-Jun-11 06:28N 41°26' E 002°15'0 0.0
2017-Jun-09 13:47N 41°26' E 002°15'0 0.1
2017-Jun-09 13:30N 41°26' E 002°15'1 2.9
2017-Jun-09 13:00N 41°25' E 002°14'1 1.8
2017-Jun-09 12:29N 41°25' E 002°16'1 2.5
2017-Jun-09 12:00N 41°26' E 002°17'1 2.9
2017-Jun-09 11:30N 41°26' E 002°15'1 1.7
2017-Jun-09 11:00N 41°27' E 002°16'2 3.2
2017-Jun-09 10:28N 41°27' E 002°18'1 1.6
2017-Jun-09 09:59N 41°27' E 002°18'2 4.0
2017-Jun-09 09:29N 41°25' E 002°16'  

Dump ship's entire track history